Time;durP1;ratioP1;P1;durP2;ratioP2;P2;SDS_P1;SDS_P2;PMS_P1;PMS_P2;Temp;Humidity;BMP_temperature;BMP_pressure;BME280_temperature;BME280_humidity;BME280_pressure;Samples;Min_cycle;Max_cycle;Signal;HPM_P1;HPM_P2
2021/07/14 00:01:17;;;;;;;10.70;6.28;;;20.60;99.90;;;;;;5004137;28;20034;-73
2021/07/14 00:03:43;;;;;;;14.38;7.28;;;20.50;99.90;;;;;;5020755;28;20022;-72
2021/07/14 00:06:08;;;;;;;16.70;6.85;;;20.50;99.90;;;;;;5005893;28;20022;-72
2021/07/14 00:08:34;;;;;;;12.85;6.70;;;20.50;99.90;;;;;;5005801;28;20027;-72
2021/07/14 00:11:02;;;;;;;13.27;7.82;;;20.50;99.90;;;;;;5021157;28;20061;-73
2021/07/14 00:13:57;;;;;;;10.05;6.28;;;20.60;99.90;;;;;;5017536;28;20046;-72
2021/07/14 00:24:27;;;;;;;13.55;7.20;;;20.50;99.90;;;;;;5025804;28;20037;-73
2021/07/14 00:26:53;;;;;;;12.18;7.13;;;20.50;99.90;;;;;;5025742;28;20655;-72
2021/07/14 00:29:19;;;;;;;16.55;7.32;;;20.50;99.90;;;;;;5025501;28;20026;-72
2021/07/14 00:31:44;;;;;;;18.23;8.65;;;20.50;99.90;;;;;;5023272;28;20080;-73
2021/07/14 00:34:10;;;;;;;11.90;6.28;;;20.50;99.90;;;;;;5025046;28;20040;-72
2021/07/14 00:36:36;;;;;;;14.18;8.38;;;20.50;99.90;;;;;;5025278;28;20033;-71
2021/07/14 00:39:02;;;;;;;10.52;6.68;;;20.50;99.90;;;;;;5024971;28;20033;-70
2021/07/14 00:41:28;;;;;;;13.68;7.35;;;20.50;99.90;;;;;;5025275;28;20032;-72
2021/07/14 00:43:55;;;;;;;13.90;6.70;;;20.40;99.90;;;;;;5025385;28;20081;-71
2021/07/14 00:46:25;;;;;;;14.13;7.00;;;20.40;99.90;;;;;;5025561;28;20088;-72
2021/07/14 00:48:53;;;;;;;17.55;7.95;;;20.50;99.90;;;;;;5025020;28;20030;-73
2021/07/14 00:51:19;;;;;;;16.42;8.07;;;20.40;99.90;;;;;;5003786;28;20038;-70
2021/07/14 00:53:45;;;;;;;21.13;7.93;;;20.40;99.90;;;;;;5004605;28;20050;-70
2021/07/14 00:56:11;;;;;;;11.90;7.72;;;20.50;99.90;;;;;;5005260;28;20090;-72
2021/07/14 00:58:37;;;;;;;13.02;7.75;;;20.40;99.90;;;;;;5003647;28;20050;-72
2021/07/14 01:01:03;;;;;;;15.90;8.82;;;20.40;99.90;;;;;;5003814;28;20057;-72
2021/07/14 01:03:40;;;;;;;16.92;8.48;;;20.40;99.90;;;;;;5003606;28;20027;-73
2021/07/14 01:06:11;;;;;;;16.63;7.38;;;20.40;99.90;;;;;;5004233;28;20026;-73
2021/07/14 01:08:50;;;;;;;20.48;9.00;;;20.40;99.90;;;;;;5004893;28;20023;-71
2021/07/14 01:11:19;;;;;;;17.52;9.27;;;20.40;99.90;;;;;;5005182;28;20058;-72
2021/07/14 01:13:55;;;;;;;20.40;8.63;;;20.40;99.90;;;;;;5004471;28;20065;-72
2021/07/14 01:16:27;;;;;;;15.05;8.20;;;20.30;99.90;;;;;;5004881;28;20018;-70
2021/07/14 01:19:30;;;;;;;19.17;8.77;;;20.30;99.90;;;;;;5004565;28;20019;-72
2021/07/14 01:22:00;;;;;;;17.85;8.60;;;20.30;99.90;;;;;;5005041;28;20034;-72
2021/07/14 01:25:01;;;;;;;13.15;7.70;;;20.30;99.90;;;;;;5003641;28;20504;-72
2021/07/14 01:27:34;;;;;;;16.40;9.10;;;20.30;99.90;;;;;;5003886;28;20042;-72
2021/07/14 01:30:02;;;;;;;19.90;10.15;;;20.20;99.90;;;;;;5004533;28;20026;-72
2021/07/14 01:32:30;;;;;;;23.95;10.68;;;20.20;99.90;;;;;;5005121;28;20030;-72
2021/07/14 01:35:04;;;;;;;21.15;9.93;;;20.20;99.90;;;;;;5004147;28;20026;-72
2021/07/14 01:37:31;;;;;;;;;;;20.30;99.90;;;;;;5020497;28;20027;-73
2021/07/14 01:39:59;;;;;;;18.88;8.50;;;20.20;99.90;;;;;;5004405;28;19909;-72
2021/07/14 01:42:29;;;;;;;19.55;10.75;;;20.20;99.90;;;;;;5005268;28;20018;-73
2021/07/14 01:44:56;;;;;;;28.70;11.60;;;20.20;99.90;;;;;;5008839;28;20093;-72
2021/07/14 01:47:23;;;;;;;17.35;9.82;;;20.20;99.90;;;;;;5008603;28;20034;-73
2021/07/14 01:49:51;;;;;;;44.53;9.02;;;20.20;99.90;;;;;;5008703;28;20050;-70
2021/07/14 01:52:19;;;;;;;17.33;9.13;;;20.20;99.90;;;;;;5007568;28;20082;-71
2021/07/14 01:54:48;;;;;;;16.38;9.88;;;20.20;99.90;;;;;;5008282;28;20038;-70
2021/07/14 01:57:15;;;;;;;19.15;10.32;;;20.20;99.90;;;;;;5008344;28;20404;-71
2021/07/14 01:59:43;;;;;;;18.05;10.45;;;20.10;99.90;;;;;;5008507;28;20105;-71
2021/07/14 02:02:10;;;;;;;19.33;9.77;;;20.10;99.90;;;;;;5006462;28;20125;-70
2021/07/14 02:04:39;;;;;;;19.05;10.75;;;20.10;99.90;;;;;;5007985;28;20023;-70
2021/07/14 02:07:09;;;;;;;22.98;11.57;;;20.10;99.90;;;;;;5008141;28;20080;-72
2021/07/14 02:09:39;;;;;;;27.65;9.80;;;20.00;99.90;;;;;;5008240;28;20030;-72
2021/07/14 02:12:24;;;;;;;28.70;9.98;;;20.00;99.90;;;;;;5007897;28;20097;-69
2021/07/14 02:14:51;;;;;;;15.68;9.50;;;20.00;99.90;;;;;;5008078;28;20054;-69
2021/07/14 02:17:20;;;;;;;20.35;9.40;;;20.00;99.90;;;;;;5006884;28;20121;-72
2021/07/14 02:19:57;;;;;;;24.98;9.88;;;20.00;99.90;;;;;;5007941;28;20041;-72
2021/07/14 02:22:23;;;;;;;26.80;12.00;;;20.00;99.90;;;;;;5008206;28;20031;-72
2021/07/14 02:24:50;;;;;;;18.48;10.93;;;20.00;99.90;;;;;;5008080;28;20041;-70
2021/07/14 02:27:16;;;;;;;19.00;9.90;;;19.90;99.90;;;;;;5007316;28;20026;-73
2021/07/14 02:29:42;;;;;;;21.23;10.73;;;19.90;99.90;;;;;;5005935;28;20026;-71
2021/07/14 02:32:12;;;;;;;31.02;10.85;;;19.90;99.90;;;;;;5007980;28;20034;-71
2021/07/14 02:34:37;;;;;;;22.25;10.82;;;19.90;99.90;;;;;;5006813;28;20058;-70
2021/07/14 02:37:06;;;;;;;19.83;10.48;;;19.90;99.90;;;;;;5007719;28;20026;-72
2021/07/14 02:39:32;;;;;;;20.67;10.27;;;19.90;99.90;;;;;;5007597;28;20094;-72
2021/07/14 02:42:07;;;;;;;21.08;10.82;;;19.90;99.90;;;;;;5007752;28;20026;-70
2021/07/14 02:44:39;;;;;;;22.38;11.25;;;19.90;99.90;;;;;;5007668;28;20094;-71
2021/07/14 02:47:06;;;;;;;28.63;11.18;;;20.00;99.90;;;;;;5007594;28;20029;-71
2021/07/14 02:49:36;;;;;;;22.58;12.18;;;19.90;99.90;;;;;;5007375;28;20022;-71
2021/07/14 02:52:02;;;;;;;29.70;12.60;;;20.00;99.90;;;;;;5007326;28;20026;-72
2021/07/14 02:54:31;;;;;;;25.50;11.57;;;19.90;99.90;;;;;;5006222;28;20424;-73
2021/07/14 02:57:01;;;;;;;27.17;12.38;;;19.90;99.90;;;;;;5007137;28;20027;-70
2021/07/14 02:59:31;;;;;;;25.50;13.13;;;19.90;99.90;;;;;;5007915;28;20030;-69
2021/07/14 03:02:00;;;;;;;28.10;12.10;;;19.90;99.90;;;;;;5007364;28;20034;-69
2021/07/14 03:04:39;;;;;;;25.63;12.38;;;19.90;99.90;;;;;;5007240;28;20026;-69
2021/07/14 03:07:07;;;;;;;30.27;13.40;;;19.90;99.90;;;;;;5006805;28;20035;-71
2021/07/14 03:09:37;;;;;;;25.70;12.38;;;19.90;99.90;;;;;;5007357;28;20034;-73
2021/07/14 03:12:10;;;;;;;27.05;11.48;;;19.90;99.90;;;;;;5006551;28;20046;-71
2021/07/14 03:14:44;;;;;;;35.22;13.25;;;19.90;99.90;;;;;;5006626;28;20038;-71
2021/07/14 03:17:11;;;;;;;23.35;11.52;;;20.00;99.90;;;;;;5007095;28;20041;-71
2021/07/14 03:19:38;;;;;;;29.30;13.15;;;20.00;99.90;;;;;;5006956;28;20042;-70
2021/07/14 03:22:05;;;;;;;28.95;13.57;;;20.00;99.90;;;;;;5006604;28;20057;-70
2021/07/14 03:24:33;;;;;;;27.17;13.00;;;20.00;99.90;;;;;;5006390;28;20033;-69
2021/07/14 03:26:59;;;;;;;22.08;11.85;;;20.00;99.90;;;;;;5007102;28;20034;-70
2021/07/14 03:29:26;;;;;;;26.45;13.48;;;20.00;99.90;;;;;;5007067;28;20031;-72
2021/07/14 03:31:52;;;;;;;22.77;12.65;;;20.00;99.90;;;;;;5006905;28;20138;-69
2021/07/14 03:34:18;;;;;;;26.20;13.20;;;20.00;99.90;;;;;;5006213;28;20035;-68
2021/07/14 03:36:45;;;;;;;30.23;13.18;;;20.00;99.90;;;;;;5006406;28;21318;-69
2021/07/14 03:39:10;;;;;;;25.23;12.93;;;20.00;99.90;;;;;;5006496;28;20029;-72
2021/07/14 03:41:38;;;;;;;28.88;12.80;;;20.00;99.90;;;;;;5006463;28;20074;-71
2021/07/14 03:44:05;;;;;;;24.90;12.75;;;19.90;99.90;;;;;;5006309;28;20026;-69
2021/07/14 03:46:32;;;;;;;23.08;11.95;;;20.00;99.90;;;;;;5006757;28;20072;-71
2021/07/14 03:48:58;;;;;;;25.67;12.65;;;19.90;99.90;;;;;;5006593;28;20057;-70
2021/07/14 03:51:25;;;;;;;27.15;14.30;;;19.90;99.90;;;;;;5004961;28;20029;-70
2021/07/14 03:53:51;;;;;;;26.08;12.15;;;19.90;99.90;;;;;;5006281;28;20046;-72
2021/07/14 03:56:21;;;;;;;34.47;13.60;;;19.80;99.90;;;;;;5006459;28;20392;-68
2021/07/14 03:58:47;;;;;;;22.38;12.40;;;19.80;99.90;;;;;;5006176;28;20030;-71
2021/07/14 04:01:13;;;;;;;33.03;13.75;;;19.80;99.90;;;;;;5005968;28;20022;-68
2021/07/14 04:03:39;;;;;;;34.05;15.45;;;19.80;99.90;;;;;;5005868;28;20023;-68
2021/07/14 04:06:08;;;;;;;35.13;15.75;;;19.80;99.90;;;;;;5004605;28;20046;-73
2021/07/14 04:08:45;;;;;;;33.25;15.93;;;19.80;99.90;;;;;;5004422;28;20042;-69
2021/07/14 04:11:12;;;;;;;33.53;14.32;;;19.80;99.90;;;;;;5005942;28;20045;-70
2021/07/14 04:13:38;;;;;;;27.42;14.23;;;19.80;99.90;;;;;;5005110;28;20128;-71
2021/07/14 04:16:04;;;;;;;29.10;15.52;;;19.80;99.90;;;;;;5005034;28;20029;-69
2021/07/14 04:18:30;;;;;;;28.90;16.05;;;19.80;99.90;;;;;;5006086;28;20046;-70
2021/07/14 04:20:57;;;;;;;32.28;13.80;;;19.80;99.90;;;;;;5005616;28;20026;-71
2021/07/14 04:23:23;;;;;;;31.42;15.73;;;19.90;99.90;;;;;;5005391;28;20057;-70
2021/07/14 04:25:48;;;;;;;33.13;14.63;;;19.90;99.90;;;;;;5005738;28;20034;-70
2021/07/14 04:28:14;;;;;;;27.30;14.88;;;19.90;99.90;;;;;;5004570;28;20517;-70
2021/07/14 04:30:40;;;;;;;33.15;16.02;;;19.90;99.90;;;;;;5005453;28;20029;-70
2021/07/14 04:33:05;;;;;;;35.25;15.95;;;20.00;99.90;;;;;;5005600;28;20070;-71
2021/07/14 04:35:31;;;;;;;24.40;14.90;;;19.90;99.90;;;;;;5005478;28;20037;-71
2021/07/14 04:37:57;;;;;;;34.75;16.05;;;19.90;99.90;;;;;;5005734;28;20053;-70
2021/07/14 04:40:22;;;;;;;37.42;16.83;;;19.90;99.90;;;;;;5005321;28;20023;-69
2021/07/14 04:42:50;;;;;;;27.83;13.70;;;19.80;99.90;;;;;;5005298;28;20134;-69
2021/07/14 04:45:16;;;;;;;27.13;15.13;;;19.90;99.90;;;;;;5004366;28;20035;-71
2021/07/14 04:47:41;;;;;;;25.85;14.10;;;19.90;99.90;;;;;;5004821;28;20037;-72
2021/07/14 04:50:08;;;;;;;25.83;14.98;;;19.90;99.90;;;;;;5002936;28;20031;-70
2021/07/14 04:52:33;;;;;;;34.03;15.90;;;20.00;99.90;;;;;;5004114;28;20022;-72
2021/07/14 04:54:59;;;;;;;29.85;15.18;;;20.00;99.90;;;;;;5004640;28;20037;-72
2021/07/14 04:57:25;;;;;;;29.60;14.57;;;20.10;99.90;;;;;;5005345;28;20033;-72
2021/07/14 04:59:51;;;;;;;30.75;14.98;;;20.10;99.90;;;;;;5004263;28;20096;-72
2021/07/14 05:02:16;;;;;;;28.75;14.32;;;20.10;99.90;;;;;;5004401;28;20030;-73
2021/07/14 05:04:42;;;;;;;31.30;15.02;;;20.10;99.90;;;;;;5004685;28;20061;-72
2021/07/14 05:07:08;;;;;;;24.25;13.27;;;20.10;99.90;;;;;;5004749;28;20053;-74
2021/07/14 05:09:33;;;;;;;32.55;15.55;;;20.10;99.90;;;;;;5006186;28;20051;-72
2021/07/14 05:12:02;;;;;;;27.15;14.07;;;20.10;99.90;;;;;;5021997;28;20029;-71
2021/07/14 05:14:28;;;;;;;30.00;15.63;;;20.00;99.90;;;;;;5016034;28;20080;-72
2021/07/14 05:16:53;;;;;;;23.75;12.85;;;20.00;99.90;;;;;;5010035;28;20030;-72
2021/07/14 05:19:19;;;;;;;26.48;13.43;;;20.00;99.90;;;;;;5017742;28;20050;-71
2021/07/14 05:21:45;;;;;;;33.40;15.23;;;20.00;99.90;;;;;;5013862;28;20479;-73
2021/07/14 05:24:11;;;;;;;36.05;15.10;;;19.90;99.90;;;;;;5011130;28;20065;-72
2021/07/14 05:26:41;;;;;;;26.38;13.75;;;19.90;99.90;;;;;;5010182;28;20030;-71
2021/07/14 05:29:07;;;;;;;28.48;14.63;;;19.90;99.90;;;;;;5022998;28;20026;-72
2021/07/14 05:31:32;;;;;;;25.73;15.32;;;19.90;99.90;;;;;;5024085;28;20019;-72
2021/07/14 05:33:59;;;;;;;41.92;15.45;;;19.90;99.90;;;;;;5023140;28;20037;-70
2021/07/14 05:36:26;;;;;;;27.27;14.95;;;19.90;99.90;;;;;;5023583;28;20034;-74
2021/07/14 05:38:51;;;;;;;36.83;15.07;;;20.00;99.90;;;;;;5023873;28;20026;-72
2021/07/14 05:41:17;;;;;;;30.30;16.50;;;20.00;99.90;;;;;;5023916;28;20071;-71
2021/07/14 05:43:43;;;;;;;24.75;13.75;;;20.10;99.90;;;;;;5023371;28;20034;-74
2021/07/14 05:46:08;;;;;;;29.10;14.75;;;20.10;99.90;;;;;;5024069;28;20038;-72
2021/07/14 05:48:34;;;;;;;31.50;14.50;;;20.10;99.90;;;;;;5024536;28;20074;-73
2021/07/14 05:51:00;;;;;;;26.08;14.15;;;20.20;99.90;;;;;;5024180;28;20026;-73
2021/07/14 05:53:26;;;;;;;27.90;14.68;;;20.20;99.90;;;;;;5024277;28;20042;-74
2021/07/14 05:55:51;;;;;;;28.85;14.40;;;20.30;99.90;;;;;;5024429;28;20037;-72
2021/07/14 05:58:17;;;;;;;33.35;13.60;;;20.30;99.90;;;;;;5024377;28;20025;-72
2021/07/14 06:00:43;;;;;;;32.65;15.00;;;20.40;99.90;;;;;;5023686;28;20030;-72
2021/07/14 06:03:08;;;;;;;30.52;15.70;;;20.40;99.90;;;;;;5023904;28;20026;-74
2021/07/14 06:05:35;;;;;;;26.02;13.02;;;20.40;99.90;;;;;;5023912;28;20476;-75
2021/07/14 06:08:00;;;;;;;30.20;15.68;;;20.40;99.90;;;;;;5024301;28;20053;-73
2021/07/14 06:10:27;;;;;;;25.60;12.35;;;20.50;99.90;;;;;;5024131;28;20022;-74
2021/07/14 06:12:56;;;;;;;29.70;14.57;;;20.50;99.90;;;;;;5013569;28;20089;-73
2021/07/14 06:15:23;;;;;;;24.30;13.70;;;20.60;99.90;;;;;;5017387;28;20118;-74
2021/07/14 06:17:49;;;;;;;21.58;13.32;;;20.60;99.90;;;;;;5018749;28;20101;-73
2021/07/14 06:20:15;;;;;;;25.35;13.27;;;20.60;99.90;;;;;;5024176;28;20040;-72
2021/07/14 06:22:40;;;;;;;25.85;12.95;;;20.70;99.90;;;;;;5022333;28;20030;-72
2021/07/14 06:25:09;;;;;;;25.55;13.77;;;20.70;99.90;;;;;;5023649;28;20034;-73
2021/07/14 06:27:34;;;;;;;28.00;12.73;;;20.80;99.90;;;;;;5023732;28;20488;-72
2021/07/14 06:30:05;;;;;;;25.30;12.75;;;20.80;99.90;;;;;;5025335;28;20074;-72
2021/07/14 06:32:31;;;;;;;22.38;12.52;;;20.90;99.90;;;;;;5027642;28;20017;-72
2021/07/14 06:34:58;;;;;;;23.27;12.57;;;20.90;99.90;;;;;;5027587;28;20025;-75
2021/07/14 06:37:23;;;;;;;25.77;12.52;;;20.90;99.90;;;;;;5027079;28;20033;-72
2021/07/14 06:39:49;;;;;;;28.63;13.27;;;20.90;99.90;;;;;;5027519;28;20045;-70
2021/07/14 06:42:15;;;;;;;24.92;13.63;;;20.90;99.90;;;;;;5027207;28;20030;-72
2021/07/14 06:44:40;;;;;;;26.90;13.82;;;20.90;99.90;;;;;;5026880;28;20038;-72
2021/07/14 06:47:06;;;;;;;25.17;13.52;;;20.90;99.90;;;;;;5026802;28;20038;-72
2021/07/14 06:49:32;;;;;;;30.40;13.07;;;20.90;99.90;;;;;;5025062;28;20022;-73
2021/07/14 06:51:57;;;;;;;26.02;13.68;;;20.90;99.90;;;;;;5026638;28;20045;-74
2021/07/14 06:54:23;;;;;;;26.58;12.25;;;20.90;99.90;;;;;;5026225;28;20041;-72
2021/07/14 06:56:48;;;;;;;25.05;12.25;;;20.90;99.90;;;;;;5025592;28;20026;-70
2021/07/14 06:59:14;;;;;;;28.83;12.05;;;20.90;99.90;;;;;;5025595;28;20041;-71
2021/07/14 07:01:39;;;;;;;20.90;12.07;;;21.00;99.90;;;;;;5024727;28;20032;-73
2021/07/14 07:04:05;;;;;;;26.38;12.75;;;21.00;99.90;;;;;;5026206;28;20030;-73
2021/07/14 07:06:30;;;;;;;26.95;12.15;;;21.00;99.90;;;;;;5026212;28;20026;-71
2021/07/14 07:08:56;;;;;;;26.25;12.98;;;21.00;99.90;;;;;;5026305;28;20490;-71
2021/07/14 07:11:22;;;;;;;25.95;12.02;;;21.00;99.90;;;;;;5026774;28;20022;-73
2021/07/14 07:13:47;;;;;;;20.85;11.70;;;21.10;99.90;;;;;;5026230;28;20073;-71
2021/07/14 07:16:13;;;;;;;21.63;11.18;;;21.10;99.90;;;;;;5024722;28;20096;-73
2021/07/14 07:18:38;;;;;;;26.65;12.23;;;21.10;99.90;;;;;;5026522;28;20041;-70
2021/07/14 07:21:07;;;;;;;27.33;13.32;;;21.20;99.90;;;;;;5023690;28;20030;-70
2021/07/14 07:23:33;;;;;;;21.83;11.68;;;21.30;99.90;;;;;;5025606;28;20030;-71
2021/07/14 07:25:59;;;;;;;19.33;11.77;;;21.30;99.90;;;;;;5027812;28;20022;-71
2021/07/14 07:28:32;;;;;;;27.90;12.13;;;21.30;99.90;;;;;;5024806;28;20030;-72
2021/07/14 07:30:57;;;;;;;19.40;11.07;;;21.30;99.90;;;;;;5026032;28;20365;-72
2021/07/14 07:33:23;;;;;;;24.25;10.40;;;21.30;99.90;;;;;;5021499;28;20044;-72
2021/07/14 07:35:49;;;;;;;20.80;11.07;;;21.30;99.90;;;;;;5010077;28;20032;-72
2021/07/14 07:38:14;;;;;;;20.05;11.50;;;21.30;99.90;;;;;;5006309;28;20042;-71
2021/07/14 07:40:40;;;;;;;22.65;11.32;;;21.30;99.90;;;;;;5006189;28;20026;-72
2021/07/14 07:43:06;;;;;;;22.20;10.57;;;21.30;99.90;;;;;;5006111;28;20026;-72
2021/07/14 07:45:32;;;;;;;20.58;11.30;;;21.40;99.90;;;;;;5006978;28;20031;-71
2021/07/14 07:47:58;;;;;;;25.27;11.85;;;21.40;99.90;;;;;;5026256;28;20034;-73
2021/07/14 07:50:23;;;;;;;24.80;11.05;;;21.40;99.90;;;;;;5026132;28;20084;-74
2021/07/14 07:52:49;;;;;;;17.48;9.23;;;21.50;99.90;;;;;;5025636;28;20088;-75
2021/07/14 07:55:15;;;;;;;21.48;11.45;;;21.50;99.90;;;;;;5022434;28;20116;-73
2021/07/14 07:57:41;;;;;;;22.42;10.45;;;21.50;99.90;;;;;;5025218;28;20080;-75
2021/07/14 08:00:11;;;;;;;25.02;11.88;;;21.60;99.90;;;;;;5024843;28;20022;-74
2021/07/14 08:02:37;;;;;;;20.60;10.48;;;21.60;99.90;;;;;;5024431;28;20021;-73
2021/07/14 08:05:03;;;;;;;20.73;10.35;;;21.60;99.90;;;;;;5025576;28;20053;-74
2021/07/14 08:07:29;;;;;;;20.17;10.45;;;21.60;99.90;;;;;;5040968;28;20025;-73
2021/07/14 08:09:54;;;;;;;19.00;10.63;;;21.70;99.90;;;;;;5025872;28;20081;-75
2021/07/14 08:12:21;;;;;;;28.42;11.75;;;21.70;99.90;;;;;;5025221;28;20659;-75
2021/07/14 08:14:47;;;;;;;17.17;10.18;;;21.70;99.90;;;;;;5025359;28;20105;-74
2021/07/14 08:17:13;;;;;;;20.00;10.95;;;21.80;99.90;;;;;;5025721;28;20038;-75
2021/07/14 08:19:38;;;;;;;18.50;9.77;;;21.90;99.90;;;;;;5024930;28;20109;-76
2021/07/14 08:22:04;;;;;;;19.45;11.07;;;21.90;99.90;;;;;;5040472;28;20026;-76
2021/07/14 08:24:30;;;;;;;15.68;10.00;;;21.90;99.90;;;;;;5025461;28;20030;-74
2021/07/14 08:26:55;;;;;;;20.13;10.27;;;21.90;99.90;;;;;;5024987;28;20076;-71
2021/07/14 08:29:24;;;;;;;18.55;10.50;;;21.80;99.90;;;;;;5025261;28;20026;-75
2021/07/14 08:31:52;;;;;;;21.90;10.85;;;21.70;99.90;;;;;;5025097;28;20037;-73
2021/07/14 08:34:18;;;;;;;18.20;10.30;;;21.70;99.90;;;;;;5023678;28;20032;-73
2021/07/14 08:36:44;;;;;;;21.02;11.15;;;21.70;99.90;;;;;;5023386;28;20033;-74
2021/07/14 08:39:10;;;;;;;25.98;12.95;;;21.70;99.90;;;;;;5023201;28;20026;-72
2021/07/14 08:41:39;;;;;;;18.92;10.23;;;21.70;99.90;;;;;;5024020;28;20052;-73
2021/07/14 08:44:06;;;;;;;19.65;10.70;;;21.70;99.90;;;;;;5025018;28;20018;-74
2021/07/14 08:46:34;;;;;;;20.20;10.45;;;21.70;99.90;;;;;;5022181;28;20022;-72
2021/07/14 08:49:03;;;;;;;20.27;10.93;;;21.70;99.90;;;;;;5012312;28;20021;-72
2021/07/14 08:51:35;;;;;;;29.33;11.88;;;21.70;99.90;;;;;;5017942;28;20458;-74
2021/07/14 08:54:09;;;;;;;22.15;11.43;;;21.70;99.90;;;;;;5021676;28;20063;-75
2021/07/14 08:56:35;;;;;;;22.70;10.73;;;21.70;99.90;;;;;;5007067;28;20053;-73
2021/07/14 08:59:02;;;;;;;25.73;10.77;;;21.70;99.90;;;;;;5005305;28;20045;-73
2021/07/14 09:01:29;;;;;;;17.77;10.43;;;21.60;99.90;;;;;;5021760;28;20030;-73
2021/07/14 09:03:57;;;;;;;21.83;12.80;;;21.60;99.90;;;;;;5014018;28;20042;-73
2021/07/14 09:06:23;;;;;;;37.05;12.10;;;21.60;99.90;;;;;;5006234;28;20033;-76
2021/07/14 09:08:49;;;;;;;22.80;11.15;;;21.60;99.90;;;;;;5016544;28;20559;-73
2021/07/14 09:11:14;;;;;;;20.80;10.75;;;21.60;99.90;;;;;;5018332;28;20030;-74
2021/07/14 09:13:43;;;;;;;26.95;12.70;;;21.50;99.90;;;;;;5018671;28;20447;-76
2021/07/14 09:16:09;;;;;;;29.40;11.43;;;21.50;99.90;;;;;;5011150;28;20066;-75
2021/07/14 09:18:35;;;;;;;18.80;10.88;;;21.40;99.90;;;;;;5016780;28;20033;-75
2021/07/14 09:21:14;;;;;;;18.20;10.73;;;21.40;99.90;;;;;;5015829;28;20111;-69
2021/07/14 09:23:41;;;;;;;21.35;11.70;;;21.40;99.90;;;;;;5024522;28;20029;-73
2021/07/14 09:26:06;;;;;;;20.15;12.40;;;21.30;99.90;;;;;;5024044;28;20034;-73
2021/07/14 09:28:37;;;;;;;21.48;11.48;;;21.30;99.90;;;;;;5024180;28;20045;-74
2021/07/14 09:31:09;;;;;;;21.42;10.88;;;21.20;99.90;;;;;;5023406;28;20503;-76
2021/07/14 09:33:36;;;;;;;22.42;11.77;;;21.20;99.90;;;;;;5011385;28;20072;-75
2021/07/14 09:36:03;;;;;;;21.25;12.27;;;21.20;99.90;;;;;;5004512;28;20134;-76
2021/07/14 09:38:41;;;;;;;21.00;12.10;;;21.20;99.90;;;;;;5002681;28;20027;-76
2021/07/14 09:41:13;;;;;;;22.73;12.40;;;21.20;99.90;;;;;;5005301;28;20030;-75
2021/07/14 09:43:46;;;;;;;21.67;12.63;;;21.20;99.90;;;;;;5004475;28;20031;-76
2021/07/14 09:46:13;;;;;;;22.27;11.77;;;21.30;99.90;;;;;;5017383;28;20014;-77
2021/07/14 09:48:43;;;;;;;24.95;12.63;;;21.40;99.90;;;;;;5020248;28;20030;-78
2021/07/14 09:51:13;;;;;;;18.92;10.40;;;21.40;99.90;;;;;;5012046;28;20026;-76
2021/07/14 09:53:42;;;;;;;28.30;13.13;;;21.30;99.90;;;;;;5014179;28;20045;-74
2021/07/14 09:56:22;;;;;;;24.10;11.30;;;21.30;99.90;;;;;;5004501;28;20026;-72
2021/07/14 09:59:02;;;;;;;23.52;12.48;;;21.20;99.90;;;;;;5006121;28;20034;-73
2021/07/14 10:01:35;;;;;;;23.20;12.77;;;21.20;99.90;;;;;;5011610;28;20034;-73
2021/07/14 10:04:02;;;;;;;19.55;10.90;;;21.10;99.90;;;;;;5019159;28;20030;-73
2021/07/14 10:06:28;;;;;;;21.17;11.50;;;21.10;99.90;;;;;;5016567;28;20380;-74
2021/07/14 10:09:00;;;;;;;18.40;10.52;;;21.00;99.90;;;;;;5027172;28;20029;-73
2021/07/14 10:11:27;;;;;;;16.42;9.68;;;21.00;99.90;;;;;;5028144;28;20089;-72
2021/07/14 10:14:07;;;;;;;20.45;11.52;;;20.90;99.90;;;;;;5027574;28;20034;-73
2021/07/14 10:16:35;;;;;;;17.48;10.57;;;20.90;99.90;;;;;;5026094;28;20034;-73
2021/07/14 10:19:08;;;;;;;18.02;10.30;;;20.90;99.90;;;;;;5025704;28;20093;-72
2021/07/14 10:21:39;;;;;;;16.58;10.32;;;20.90;99.90;;;;;;5025627;28;20041;-71
2021/07/14 10:24:06;;;;;;;20.70;10.90;;;20.90;99.90;;;;;;5027376;28;20022;-72
2021/07/14 10:26:35;;;;;;;24.17;10.63;;;20.90;99.90;;;;;;5027476;28;20078;-72
2021/07/14 10:29:03;;;;;;;21.60;9.88;;;21.00;99.90;;;;;;5025949;28;20101;-73
2021/07/14 10:31:30;;;;;;;16.98;9.45;;;21.00;99.90;;;;;;5026920;28;20086;-72
2021/07/14 10:33:58;;;;;;;22.83;11.52;;;21.00;99.90;;;;;;5026171;28;20161;-73
2021/07/14 10:36:31;;;;;;;19.10;10.38;;;21.10;99.90;;;;;;5027061;28;20057;-73
2021/07/14 10:39:14;;;;;;;17.88;10.43;;;21.20;99.90;;;;;;5027530;28;20053;-73
2021/07/14 10:41:42;;;;;;;19.98;11.80;;;21.20;99.90;;;;;;5027288;28;20030;-75
2021/07/14 10:44:09;;;;;;;27.40;11.23;;;21.30;99.90;;;;;;5026894;28;20018;-71
2021/07/14 10:46:36;;;;;;;19.08;12.40;;;21.30;99.90;;;;;;5027398;28;20028;-72
2021/07/14 10:49:05;;;;;;;20.20;10.57;;;21.30;99.90;;;;;;5026255;28;20045;-71
2021/07/14 10:51:33;;;;;;;21.35;9.90;;;21.30;99.90;;;;;;5023349;28;20026;-72
2021/07/14 10:54:02;;;;;;;22.25;11.48;;;21.30;99.90;;;;;;5007676;28;20042;-72
2021/07/14 10:56:36;;;;;;;19.52;11.02;;;21.30;99.90;;;;;;5013780;28;20030;-72
2021/07/14 10:59:04;;;;;;;24.10;12.77;;;21.40;99.90;;;;;;5025927;28;20499;-73
2021/07/14 11:01:48;;;;;;;21.08;11.98;;;21.40;99.90;;;;;;5026830;28;20472;-74
2021/07/14 11:04:27;;;;;;;23.40;12.43;;;21.40;99.90;;;;;;5008944;28;20053;-71
2021/07/14 11:07:06;;;;;;;27.10;11.82;;;21.40;99.90;;;;;;5007521;28;20045;-70
2021/07/14 11:09:46;;;;;;;24.92;10.93;;;21.40;99.90;;;;;;5007061;28;20023;-70
2021/07/14 11:12:29;;;;;;;18.75;10.38;;;21.40;99.90;;;;;;5007158;28;20073;-74
2021/07/14 11:15:03;;;;;;;27.13;13.63;;;21.40;99.90;;;;;;5006577;28;20045;-73
2021/07/14 11:17:35;;;;;;;27.25;13.82;;;21.50;99.90;;;;;;5010082;28;20030;-72
2021/07/14 11:20:14;;;;;;;27.42;12.45;;;21.50;99.90;;;;;;5025949;28;20093;-72
2021/07/14 11:22:49;;;;;;;22.50;11.75;;;21.60;99.90;;;;;;5026535;28;20040;-73
2021/07/14 11:25:20;;;;;;;24.42;13.68;;;21.70;99.90;;;;;;5026667;28;20029;-71
2021/07/14 11:27:51;;;;;;;25.98;13.15;;;21.80;99.90;;;;;;5026542;28;20056;-69
2021/07/14 11:30:16;;;;;;;27.40;13.90;;;21.90;99.90;;;;;;5024711;28;20495;-70
2021/07/14 11:32:42;;;;;;;28.83;14.38;;;22.00;99.90;;;;;;5026082;28;20026;-71
2021/07/14 11:35:10;;;;;;;26.27;12.90;;;22.10;99.90;;;;;;5026285;28;20022;-71
2021/07/14 11:37:44;;;;;;;17.98;11.20;;;22.20;99.90;;;;;;5025595;28;20082;-70
2021/07/14 11:40:25;;;;;;;21.58;11.77;;;22.30;99.90;;;;;;5026275;28;20113;-72
2021/07/14 11:43:19;;;;;;;20.80;12.60;;;22.40;99.90;;;;;;5025823;28;20026;-72
2021/07/14 11:45:50;;;;;;;28.60;13.10;;;22.40;99.90;;;;;;5008367;28;20034;-73
2021/07/14 11:48:26;;;;;;;25.27;12.70;;;22.40;99.90;;;;;;5006164;28;20034;-74
2021/07/14 11:51:06;;;;;;;23.58;10.40;;;22.30;99.90;;;;;;5005594;28;20023;-72
2021/07/14 11:53:38;;;;;;;22.63;12.07;;;22.30;99.90;;;;;;5006499;28;20086;-76
2021/07/14 11:56:18;;;;;;;20.52;10.98;;;22.30;99.90;;;;;;5021965;28;20085;-76
2021/07/14 11:58:51;;;;;;;18.52;10.90;;;22.20;99.90;;;;;;5021373;28;20030;-75
2021/07/14 12:01:24;;;;;;;20.98;11.00;;;22.30;99.90;;;;;;5005983;28;20066;-73
2021/07/14 12:04:01;;;;;;;17.15;10.48;;;22.30;99.90;;;;;;5021094;28;20030;-74
2021/07/14 12:06:44;;;;;;;20.58;12.10;;;22.40;99.90;;;;;;5006100;28;20035;-74
2021/07/14 12:09:12;;;;;;;24.77;12.75;;;22.50;99.90;;;;;;5005928;28;20122;-76
2021/07/14 12:11:56;;;;;;;27.52;12.45;;;22.60;99.90;;;;;;5020890;28;20030;-72
2021/07/14 12:14:24;;;;;;;13.67;9.43;;;22.70;99.90;;;;;;5006167;28;20030;-72
2021/07/14 12:17:02;;;;;;;18.92;11.20;;;22.70;99.90;;;;;;5006027;28;20038;-73
2021/07/14 12:19:50;;;;;;;23.98;11.93;;;22.80;99.90;;;;;;5006045;28;20037;-74
2021/07/14 12:22:21;;;;;;;17.85;11.00;;;22.90;99.90;;;;;;5005674;28;20061;-72
2021/07/14 12:24:53;;;;;;;35.78;12.90;;;23.10;99.90;;;;;;5005439;28;20465;-70
2021/07/14 12:27:23;;;;;;;24.73;12.23;;;23.30;99.90;;;;;;5004801;28;20023;-72
2021/07/14 12:30:01;;;;;;;16.33;10.13;;;23.50;99.90;;;;;;5005704;28;20029;-71
2021/07/14 12:32:33;;;;;;;19.33;10.52;;;23.60;99.90;;;;;;5005780;28;20041;-71
2021/07/14 12:35:00;;;;;;;18.15;8.88;;;23.70;99.90;;;;;;5005396;28;20049;-71
2021/07/14 12:37:25;;;;;;;21.40;10.60;;;23.70;99.90;;;;;;5005493;28;20056;-71
2021/07/14 12:39:51;;;;;;;18.85;11.23;;;23.80;99.90;;;;;;5005643;28;20077;-71
2021/07/14 12:42:23;;;;;;;25.63;12.10;;;23.80;99.90;;;;;;5005496;28;20456;-70
2021/07/14 12:44:50;;;;;;;23.13;11.48;;;23.90;99.90;;;;;;5005579;28;20036;-72